sensor_id;sensor_type;location;lat;lon;timestamp;P1;durP1;ratioP1;P2;durP2;ratioP2
40244;SDS011;25963;42.694;23.600;2022-10-17T00:00:45;12.18;;;7.78;;
40244;SDS011;25963;42.694;23.600;2022-10-17T00:03:11;10.73;;;7.38;;
40244;SDS011;25963;42.694;23.600;2022-10-17T00:05:40;13.20;;;8.45;;
40244;SDS011;25963;42.694;23.600;2022-10-17T00:08:08;14.13;;;8.20;;
40244;SDS011;25963;42.694;23.600;2022-10-17T00:10:34;12.10;;;7.13;;
40244;SDS011;25963;42.694;23.600;2022-10-17T00:12:59;11.38;;;7.80;;
40244;SDS011;25963;42.694;23.600;2022-10-17T00:15:25;11.07;;;7.60;;
40244;SDS011;25963;42.694;23.600;2022-10-17T00:17:50;11.48;;;7.45;;
40244;SDS011;25963;42.694;23.600;2022-10-17T00:20:16;11.95;;;8.13;;
40244;SDS011;25963;42.694;23.600;2022-10-17T00:22:41;11.18;;;7.38;;
40244;SDS011;25963;42.694;23.600;2022-10-17T00:25:07;12.48;;;7.68;;
40244;SDS011;25963;42.694;23.600;2022-10-17T00:27:37;10.50;;;7.43;;
40244;SDS011;25963;42.694;23.600;2022-10-17T00:30:05;9.55;;;7.10;;
40244;SDS011;25963;42.694;23.600;2022-10-17T00:32:32;9.80;;;7.65;;
40244;SDS011;25963;42.694;23.600;2022-10-17T00:34:57;11.90;;;8.90;;
40244;SDS011;25963;42.694;23.600;2022-10-17T00:37:23;14.27;;;8.77;;
40244;SDS011;25963;42.694;23.600;2022-10-17T00:39:48;11.93;;;8.70;;
40244;SDS011;25963;42.694;23.600;2022-10-17T00:42:14;13.93;;;8.07;;
40244;SDS011;25963;42.694;23.600;2022-10-17T00:47:06;11.80;;;8.25;;
40244;SDS011;25963;42.694;23.600;2022-10-17T00:49:36;18.83;;;10.82;;
40244;SDS011;25963;42.694;23.600;2022-10-17T00:52:10;12.32;;;8.13;;
40244;SDS011;25963;42.694;23.600;2022-10-17T00:54:40;11.65;;;8.13;;
40244;SDS011;25963;42.694;23.600;2022-10-17T00:57:12;13.48;;;8.57;;
40244;SDS011;25963;42.694;23.600;2022-10-17T00:59:38;12.88;;;7.97;;
40244;SDS011;25963;42.694;23.600;2022-10-17T01:02:07;11.13;;;8.10;;
40244;SDS011;25963;42.694;23.600;2022-10-17T01:04:39;11.63;;;7.10;;
40244;SDS011;25963;42.694;23.600;2022-10-17T01:07:07;11.65;;;7.78;;
40244;SDS011;25963;42.694;23.600;2022-10-17T01:09:33;14.13;;;8.32;;
40244;SDS011;25963;42.694;23.600;2022-10-17T01:12:03;14.88;;;8.95;;
40244;SDS011;25963;42.694;23.600;2022-10-17T01:22:25;15.23;;;9.57;;
40244;SDS011;25963;42.694;23.600;2022-10-17T01:33:16;14.70;;;9.55;;
40244;SDS011;25963;42.694;23.600;2022-10-17T01:38:19;12.38;;;8.20;;
40244;SDS011;25963;42.694;23.600;2022-10-17T01:40:53;11.20;;;7.50;;
40244;SDS011;25963;42.694;23.600;2022-10-17T01:43:24;12.25;;;7.85;;
40244;SDS011;25963;42.694;23.600;2022-10-17T01:45:58;14.43;;;8.20;;
40244;SDS011;25963;42.694;23.600;2022-10-17T01:48:35;15.57;;;7.63;;
40244;SDS011;25963;42.694;23.600;2022-10-17T01:51:11;9.90;;;6.65;;
40244;SDS011;25963;42.694;23.600;2022-10-17T01:53:45;10.05;;;6.60;;
40244;SDS011;25963;42.694;23.600;2022-10-17T01:56:25;9.57;;;6.53;;
40244;SDS011;25963;42.694;23.600;2022-10-17T01:59:06;8.45;;;6.30;;
40244;SDS011;25963;42.694;23.600;2022-10-17T02:01:40;11.55;;;6.72;;
40244;SDS011;25963;42.694;23.600;2022-10-17T02:04:08;10.52;;;6.28;;
40244;SDS011;25963;42.694;23.600;2022-10-17T02:06:35;13.98;;;7.65;;
40244;SDS011;25963;42.694;23.600;2022-10-17T02:09:13;12.05;;;6.70;;
40244;SDS011;25963;42.694;23.600;2022-10-17T02:11:48;13.75;;;7.55;;
40244;SDS011;25963;42.694;23.600;2022-10-17T02:14:22;9.50;;;6.53;;
40244;SDS011;25963;42.694;23.600;2022-10-17T02:25:15;15.35;;;7.85;;
40244;SDS011;25963;42.694;23.600;2022-10-17T02:30:51;15.30;;;8.13;;
40244;SDS011;25963;42.694;23.600;2022-10-17T02:36:10;8.43;;;6.60;;
40244;SDS011;25963;42.694;23.600;2022-10-17T02:38:49;11.98;;;7.30;;
40244;SDS011;25963;42.694;23.600;2022-10-17T02:41:15;12.05;;;7.40;;
40244;SDS011;25963;42.694;23.600;2022-10-17T02:43:44;12.95;;;7.85;;
40244;SDS011;25963;42.694;23.600;2022-10-17T02:46:12;12.68;;;8.05;;
40244;SDS011;25963;42.694;23.600;2022-10-17T02:49:19;9.05;;;6.20;;
40244;SDS011;25963;42.694;23.600;2022-10-17T02:52:02;10.00;;;6.45;;
40244;SDS011;25963;42.694;23.600;2022-10-17T02:55:00;15.25;;;6.43;;
40244;SDS011;25963;42.694;23.600;2022-10-17T03:00:10;9.77;;;5.95;;
40244;SDS011;25963;42.694;23.600;2022-10-17T03:02:41;10.65;;;6.80;;
40244;SDS011;25963;42.694;23.600;2022-10-17T03:05:10;12.73;;;7.47;;
40244;SDS011;25963;42.694;23.600;2022-10-17T03:07:37;10.75;;;6.28;;
40244;SDS011;25963;42.694;23.600;2022-10-17T03:10:03;13.45;;;6.75;;
40244;SDS011;25963;42.694;23.600;2022-10-17T03:12:29;13.43;;;7.97;;
40244;SDS011;25963;42.694;23.600;2022-10-17T03:14:54;14.23;;;8.43;;
40244;SDS011;25963;42.694;23.600;2022-10-17T03:17:20;20.30;;;10.45;;
40244;SDS011;25963;42.694;23.600;2022-10-17T03:19:45;20.52;;;11.77;;
40244;SDS011;25963;42.694;23.600;2022-10-17T03:22:11;38.53;;;15.93;;
40244;SDS011;25963;42.694;23.600;2022-10-17T03:24:36;15.02;;;8.40;;
40244;SDS011;25963;42.694;23.600;2022-10-17T03:27:02;23.25;;;10.05;;
40244;SDS011;25963;42.694;23.600;2022-10-17T03:29:27;15.05;;;9.38;;
40244;SDS011;25963;42.694;23.600;2022-10-17T03:31:52;20.75;;;9.98;;
40244;SDS011;25963;42.694;23.600;2022-10-17T03:34:18;24.60;;;10.25;;
40244;SDS011;25963;42.694;23.600;2022-10-17T03:36:44;12.48;;;7.25;;
40244;SDS011;25963;42.694;23.600;2022-10-17T03:39:09;12.55;;;7.60;;
40244;SDS011;25963;42.694;23.600;2022-10-17T03:41:35;11.52;;;7.22;;
40244;SDS011;25963;42.694;23.600;2022-10-17T03:44:00;8.98;;;6.43;;
40244;SDS011;25963;42.694;23.600;2022-10-17T03:46:25;11.23;;;6.53;;
40244;SDS011;25963;42.694;23.600;2022-10-17T03:48:51;14.52;;;6.82;;
40244;SDS011;25963;42.694;23.600;2022-10-17T03:51:16;14.07;;;7.43;;
40244;SDS011;25963;42.694;23.600;2022-10-17T03:53:42;11.95;;;6.80;;
40244;SDS011;25963;42.694;23.600;2022-10-17T03:56:11;15.48;;;7.43;;
40244;SDS011;25963;42.694;23.600;2022-10-17T03:58:46;12.43;;;7.13;;
40244;SDS011;25963;42.694;23.600;2022-10-17T04:01:12;10.10;;;6.45;;
40244;SDS011;25963;42.694;23.600;2022-10-17T04:03:40;9.63;;;6.60;;
40244;SDS011;25963;42.694;23.600;2022-10-17T04:06:06;9.75;;;6.50;;
40244;SDS011;25963;42.694;23.600;2022-10-17T04:08:32;10.75;;;7.05;;
40244;SDS011;25963;42.694;23.600;2022-10-17T04:10:59;13.35;;;7.60;;
40244;SDS011;25963;42.694;23.600;2022-10-17T04:13:25;17.40;;;8.88;;
40244;SDS011;25963;42.694;23.600;2022-10-17T04:16:10;13.90;;;7.32;;
40244;SDS011;25963;42.694;23.600;2022-10-17T04:18:37;11.82;;;7.15;;
40244;SDS011;25963;42.694;23.600;2022-10-17T04:21:04;13.55;;;7.07;;
40244;SDS011;25963;42.694;23.600;2022-10-17T04:23:30;11.68;;;7.43;;
40244;SDS011;25963;42.694;23.600;2022-10-17T04:25:59;13.90;;;7.90;;
40244;SDS011;25963;42.694;23.600;2022-10-17T04:28:25;9.63;;;7.15;;
40244;SDS011;25963;42.694;23.600;2022-10-17T04:30:57;12.93;;;6.75;;
40244;SDS011;25963;42.694;23.600;2022-10-17T04:33:23;14.77;;;7.60;;
40244;SDS011;25963;42.694;23.600;2022-10-17T04:38:30;11.50;;;7.10;;
40244;SDS011;25963;42.694;23.600;2022-10-17T04:40:57;14.10;;;8.27;;
40244;SDS011;25963;42.694;23.600;2022-10-17T04:43:26;14.77;;;7.55;;
40244;SDS011;25963;42.694;23.600;2022-10-17T04:45:51;17.08;;;8.73;;
40244;SDS011;25963;42.694;23.600;2022-10-17T04:48:17;12.57;;;7.60;;
40244;SDS011;25963;42.694;23.600;2022-10-17T04:50:51;17.45;;;8.00;;
40244;SDS011;25963;42.694;23.600;2022-10-17T04:53:21;15.13;;;8.70;;
40244;SDS011;25963;42.694;23.600;2022-10-17T04:55:47;15.20;;;9.05;;
40244;SDS011;25963;42.694;23.600;2022-10-17T04:58:12;16.38;;;8.27;;
40244;SDS011;25963;42.694;23.600;2022-10-17T05:00:38;19.05;;;8.25;;
40244;SDS011;25963;42.694;23.600;2022-10-17T05:03:04;19.55;;;9.18;;
40244;SDS011;25963;42.694;23.600;2022-10-17T05:05:29;14.55;;;7.72;;
40244;SDS011;25963;42.694;23.600;2022-10-17T05:07:55;12.10;;;7.85;;
40244;SDS011;25963;42.694;23.600;2022-10-17T05:10:20;11.00;;;7.78;;
40244;SDS011;25963;42.694;23.600;2022-10-17T05:12:46;14.93;;;9.52;;
40244;SDS011;25963;42.694;23.600;2022-10-17T05:15:12;15.55;;;10.07;;
40244;SDS011;25963;42.694;23.600;2022-10-17T05:17:38;14.35;;;8.30;;
40244;SDS011;25963;42.694;23.600;2022-10-17T05:20:03;16.80;;;8.85;;
40244;SDS011;25963;42.694;23.600;2022-10-17T05:22:29;16.65;;;9.73;;
40244;SDS011;25963;42.694;23.600;2022-10-17T05:24:55;40.67;;;18.05;;
40244;SDS011;25963;42.694;23.600;2022-10-17T05:27:21;44.35;;;21.73;;
40244;SDS011;25963;42.694;23.600;2022-10-17T05:29:46;229.50;;;99.97;;
40244;SDS011;25963;42.694;23.600;2022-10-17T05:32:11;70.40;;;35.33;;
40244;SDS011;25963;42.694;23.600;2022-10-17T05:34:37;51.75;;;25.10;;
40244;SDS011;25963;42.694;23.600;2022-10-17T05:37:02;20.77;;;9.80;;
40244;SDS011;25963;42.694;23.600;2022-10-17T05:39:28;91.35;;;37.10;;
40244;SDS011;25963;42.694;23.600;2022-10-17T05:41:53;28.95;;;14.27;;
40244;SDS011;25963;42.694;23.600;2022-10-17T05:44:19;167.15;;;65.72;;
40244;SDS011;25963;42.694;23.600;2022-10-17T05:46:46;418.05;;;172.98;;
40244;SDS011;25963;42.694;23.600;2022-10-17T05:49:13;322.55;;;127.55;;
40244;SDS011;25963;42.694;23.600;2022-10-17T05:51:38;494.95;;;216.45;;
40244;SDS011;25963;42.694;23.600;2022-10-17T05:54:05;233.82;;;93.18;;
40244;SDS011;25963;42.694;23.600;2022-10-17T05:56:31;348.30;;;133.85;;
40244;SDS011;25963;42.694;23.600;2022-10-17T05:58:57;225.85;;;89.53;;
40244;SDS011;25963;42.694;23.600;2022-10-17T06:01:22;16.40;;;8.85;;
40244;SDS011;25963;42.694;23.600;2022-10-17T06:03:48;21.70;;;10.30;;
40244;SDS011;25963;42.694;23.600;2022-10-17T06:06:14;68.25;;;26.17;;
40244;SDS011;25963;42.694;23.600;2022-10-17T06:08:40;19.60;;;11.05;;
40244;SDS011;25963;42.694;23.600;2022-10-17T06:11:06;181.77;;;60.35;;
40244;SDS011;25963;42.694;23.600;2022-10-17T06:13:35;16.92;;;9.43;;
40244;SDS011;25963;42.694;23.600;2022-10-17T06:16:01;17.90;;;9.98;;
40244;SDS011;25963;42.694;23.600;2022-10-17T06:18:27;12.70;;;7.10;;
40244;SDS011;25963;42.694;23.600;2022-10-17T06:20:53;8.10;;;6.88;;
40244;SDS011;25963;42.694;23.600;2022-10-17T06:23:18;35.13;;;14.85;;
40244;SDS011;25963;42.694;23.600;2022-10-17T06:25:44;24.40;;;12.02;;
40244;SDS011;25963;42.694;23.600;2022-10-17T06:28:10;24.20;;;11.75;;
40244;SDS011;25963;42.694;23.600;2022-10-17T06:30:37;12.77;;;8.57;;
40244;SDS011;25963;42.694;23.600;2022-10-17T06:33:04;52.10;;;19.88;;
40244;SDS011;25963;42.694;23.600;2022-10-17T06:35:30;30.88;;;13.32;;
40244;SDS011;25963;42.694;23.600;2022-10-17T06:37:55;9.00;;;7.18;;
40244;SDS011;25963;42.694;23.600;2022-10-17T06:40:21;16.98;;;8.80;;
40244;SDS011;25963;42.694;23.600;2022-10-17T06:42:46;32.35;;;14.35;;
40244;SDS011;25963;42.694;23.600;2022-10-17T06:45:12;65.93;;;26.17;;
40244;SDS011;25963;42.694;23.600;2022-10-17T06:47:38;22.85;;;12.00;;
40244;SDS011;25963;42.694;23.600;2022-10-17T06:50:04;38.47;;;18.10;;
40244;SDS011;25963;42.694;23.600;2022-10-17T06:52:29;12.50;;;8.38;;
40244;SDS011;25963;42.694;23.600;2022-10-17T06:54:55;14.57;;;8.25;;
40244;SDS011;25963;42.694;23.600;2022-10-17T06:57:20;15.55;;;8.50;;
40244;SDS011;25963;42.694;23.600;2022-10-17T06:59:46;9.90;;;7.65;;
40244;SDS011;25963;42.694;23.600;2022-10-17T07:02:11;11.57;;;8.15;;
40244;SDS011;25963;42.694;23.600;2022-10-17T07:04:37;14.45;;;9.15;;
40244;SDS011;25963;42.694;23.600;2022-10-17T07:07:02;16.38;;;8.50;;
40244;SDS011;25963;42.694;23.600;2022-10-17T07:09:31;15.77;;;7.88;;
40244;SDS011;25963;42.694;23.600;2022-10-17T07:11:57;13.93;;;9.77;;
40244;SDS011;25963;42.694;23.600;2022-10-17T07:14:24;16.65;;;8.20;;
40244;SDS011;25963;42.694;23.600;2022-10-17T07:16:56;14.98;;;7.55;;
40244;SDS011;25963;42.694;23.600;2022-10-17T07:19:22;15.02;;;8.20;;
40244;SDS011;25963;42.694;23.600;2022-10-17T07:21:48;12.68;;;9.32;;
40244;SDS011;25963;42.694;23.600;2022-10-17T07:24:13;17.35;;;9.55;;
40244;SDS011;25963;42.694;23.600;2022-10-17T07:26:39;16.70;;;9.32;;
40244;SDS011;25963;42.694;23.600;2022-10-17T07:29:04;11.68;;;8.63;;
40244;SDS011;25963;42.694;23.600;2022-10-17T07:31:31;10.98;;;8.50;;
40244;SDS011;25963;42.694;23.600;2022-10-17T07:34:00;14.02;;;9.55;;
40244;SDS011;25963;42.694;23.600;2022-10-17T07:36:25;12.57;;;8.18;;
40244;SDS011;25963;42.694;23.600;2022-10-17T07:38:51;20.15;;;8.52;;
40244;SDS011;25963;42.694;23.600;2022-10-17T07:41:16;19.55;;;14.93;;
40244;SDS011;25963;42.694;23.600;2022-10-17T07:43:43;10.85;;;8.40;;
40244;SDS011;25963;42.694;23.600;2022-10-17T07:46:08;12.80;;;7.57;;
40244;SDS011;25963;42.694;23.600;2022-10-17T07:48:35;12.82;;;8.98;;
40244;SDS011;25963;42.694;23.600;2022-10-17T07:51:02;8.82;;;7.50;;
40244;SDS011;25963;42.694;23.600;2022-10-17T07:53:29;10.73;;;6.90;;
40244;SDS011;25963;42.694;23.600;2022-10-17T07:55:54;8.68;;;7.32;;
40244;SDS011;25963;42.694;23.600;2022-10-17T07:58:20;11.43;;;6.88;;
40244;SDS011;25963;42.694;23.600;2022-10-17T08:00:45;18.63;;;7.47;;
40244;SDS011;25963;42.694;23.600;2022-10-17T08:03:15;11.43;;;7.85;;
40244;SDS011;25963;42.694;23.600;2022-10-17T08:05:48;14.25;;;7.43;;
40244;SDS011;25963;42.694;23.600;2022-10-17T08:08:14;11.93;;;6.60;;
40244;SDS011;25963;42.694;23.600;2022-10-17T08:10:39;10.10;;;6.63;;
40244;SDS011;25963;42.694;23.600;2022-10-17T08:13:04;12.77;;;6.55;;
40244;SDS011;25963;42.694;23.600;2022-10-17T08:15:30;16.40;;;8.43;;
40244;SDS011;25963;42.694;23.600;2022-10-17T08:17:55;11.45;;;7.13;;
40244;SDS011;25963;42.694;23.600;2022-10-17T08:20:21;10.90;;;7.20;;
40244;SDS011;25963;42.694;23.600;2022-10-17T08:22:50;15.32;;;8.27;;
40244;SDS011;25963;42.694;23.600;2022-10-17T08:25:18;10.00;;;6.60;;
40244;SDS011;25963;42.694;23.600;2022-10-17T08:27:44;10.02;;;6.65;;
40244;SDS011;25963;42.694;23.600;2022-10-17T08:30:10;8.65;;;6.40;;
40244;SDS011;25963;42.694;23.600;2022-10-17T08:32:35;12.05;;;6.22;;
40244;SDS011;25963;42.694;23.600;2022-10-17T08:35:01;11.27;;;6.38;;
40244;SDS011;25963;42.694;23.600;2022-10-17T08:37:26;10.82;;;6.50;;
40244;SDS011;25963;42.694;23.600;2022-10-17T08:39:52;14.10;;;7.13;;
40244;SDS011;25963;42.694;23.600;2022-10-17T08:42:42;11.90;;;6.55;;
40244;SDS011;25963;42.694;23.600;2022-10-17T08:45:33;10.07;;;6.30;;
40244;SDS011;25963;42.694;23.600;2022-10-17T08:48:00;10.10;;;5.63;;
40244;SDS011;25963;42.694;23.600;2022-10-17T08:53:09;11.45;;;6.55;;
40244;SDS011;25963;42.694;23.600;2022-10-17T08:55:38;8.82;;;7.55;;
40244;SDS011;25963;42.694;23.600;2022-10-17T08:58:38;10.00;;;7.05;;
40244;SDS011;25963;42.694;23.600;2022-10-17T09:06:10;10.18;;;5.95;;
40244;SDS011;25963;42.694;23.600;2022-10-17T09:14:17;11.65;;;7.90;;
40244;SDS011;25963;42.694;23.600;2022-10-17T09:22:28;9.40;;;5.47;;
40244;SDS011;25963;42.694;23.600;2022-10-17T09:25:04;9.85;;;6.18;;
40244;SDS011;25963;42.694;23.600;2022-10-17T09:27:40;6.50;;;4.70;;
40244;SDS011;25963;42.694;23.600;2022-10-17T09:31:13;9.80;;;5.20;;
40244;SDS011;25963;42.694;23.600;2022-10-17T09:33:10;5.60;;;4.05;;
40244;SDS011;25963;42.694;23.600;2022-10-17T09:35:36;7.13;;;3.85;;
40244;SDS011;25963;42.694;23.600;2022-10-17T09:38:02;9.35;;;6.78;;
40244;SDS011;25963;42.694;23.600;2022-10-17T09:40:32;7.15;;;4.55;;
40244;SDS011;25963;42.694;23.600;2022-10-17T09:43:00;9.80;;;4.43;;
40244;SDS011;25963;42.694;23.600;2022-10-17T09:45:29;21.05;;;4.38;;
40244;SDS011;25963;42.694;23.600;2022-10-17T09:48:07;15.48;;;9.77;;
40244;SDS011;25963;42.694;23.600;2022-10-17T09:50:48;6.32;;;4.40;;
40244;SDS011;25963;42.694;23.600;2022-10-17T09:53:17;8.50;;;3.70;;
40244;SDS011;25963;42.694;23.600;2022-10-17T09:55:48;5.80;;;3.50;;
40244;SDS011;25963;42.694;23.600;2022-10-17T09:58:19;6.70;;;3.65;;
40244;SDS011;25963;42.694;23.600;2022-10-17T10:00:45;4.63;;;3.70;;
40244;SDS011;25963;42.694;23.600;2022-10-17T10:03:24;5.85;;;2.90;;
40244;SDS011;25963;42.694;23.600;2022-10-17T10:06:11;3.65;;;3.25;;
40244;SDS011;25963;42.694;23.600;2022-10-17T10:11:13;3.38;;;2.45;;
40244;SDS011;25963;42.694;23.600;2022-10-17T10:13:46;3.67;;;2.67;;
40244;SDS011;25963;42.694;23.600;2022-10-17T10:16:17;6.95;;;3.60;;
40244;SDS011;25963;42.694;23.600;2022-10-17T10:18:46;5.20;;;3.13;;
40244;SDS011;25963;42.694;23.600;2022-10-17T10:21:16;4.75;;;2.90;;
40244;SDS011;25963;42.694;23.600;2022-10-17T10:24:01;5.60;;;2.33;;
40244;SDS011;25963;42.694;23.600;2022-10-17T10:26:46;4.10;;;3.40;;
40244;SDS011;25963;42.694;23.600;2022-10-17T10:29:23;4.22;;;3.13;;
40244;SDS011;25963;42.694;23.600;2022-10-17T10:32:08;5.72;;;2.50;;
40244;SDS011;25963;42.694;23.600;2022-10-17T10:34:36;4.15;;;2.45;;
40244;SDS011;25963;42.694;23.600;2022-10-17T10:37:17;3.88;;;2.90;;
40244;SDS011;25963;42.694;23.600;2022-10-17T10:39:50;4.15;;;2.70;;
40244;SDS011;25963;42.694;23.600;2022-10-17T10:42:28;4.38;;;3.00;;
40244;SDS011;25963;42.694;23.600;2022-10-17T10:45:01;3.25;;;2.20;;
40244;SDS011;25963;42.694;23.600;2022-10-17T10:47:27;2.93;;;2.63;;
40244;SDS011;25963;42.694;23.600;2022-10-17T10:55:30;3.55;;;3.20;;
40244;SDS011;25963;42.694;23.600;2022-10-17T10:58:02;4.68;;;2.83;;
40244;SDS011;25963;42.694;23.600;2022-10-17T11:00:33;7.05;;;3.80;;
40244;SDS011;25963;42.694;23.600;2022-10-17T11:08:48;3.03;;;2.60;;
40244;SDS011;25963;42.694;23.600;2022-10-17T11:11:28;4.18;;;2.70;;
40244;SDS011;25963;42.694;23.600;2022-10-17T11:14:04;4.47;;;2.88;;
40244;SDS011;25963;42.694;23.600;2022-10-17T11:16:40;4.50;;;2.50;;
40244;SDS011;25963;42.694;23.600;2022-10-17T11:19:17;3.17;;;2.45;;
40244;SDS011;25963;42.694;23.600;2022-10-17T11:24:23;3.03;;;2.15;;
40244;SDS011;25963;42.694;23.600;2022-10-17T11:27:04;4.07;;;2.25;;
40244;SDS011;25963;42.694;23.600;2022-10-17T11:29:32;5.72;;;2.15;;
40244;SDS011;25963;42.694;23.600;2022-10-17T11:32:01;5.97;;;2.60;;
40244;SDS011;25963;42.694;23.600;2022-10-17T11:34:59;3.42;;;2.30;;
40244;SDS011;25963;42.694;23.600;2022-10-17T11:37:45;4.50;;;2.38;;
40244;SDS011;25963;42.694;23.600;2022-10-17T11:40:18;3.80;;;2.40;;
40244;SDS011;25963;42.694;23.600;2022-10-17T11:42:52;3.00;;;2.70;;
40244;SDS011;25963;42.694;23.600;2022-10-17T11:45:23;4.18;;;2.90;;
40244;SDS011;25963;42.694;23.600;2022-10-17T11:52:55;4.95;;;2.33;;
40244;SDS011;25963;42.694;23.600;2022-10-17T11:55:26;4.95;;;2.78;;
40244;SDS011;25963;42.694;23.600;2022-10-17T11:57:56;6.50;;;2.20;;
40244;SDS011;25963;42.694;23.600;2022-10-17T12:03:40;2.70;;;2.30;;
40244;SDS011;25963;42.694;23.600;2022-10-17T12:11:39;4.53;;;2.17;;
40244;SDS011;25963;42.694;23.600;2022-10-17T12:17:19;3.40;;;1.90;;
40244;SDS011;25963;42.694;23.600;2022-10-17T12:22:50;4.97;;;2.28;;
40244;SDS011;25963;42.694;23.600;2022-10-17T12:25:25;2.33;;;1.90;;
40244;SDS011;25963;42.694;23.600;2022-10-17T12:28:10;4.07;;;2.03;;
40244;SDS011;25963;42.694;23.600;2022-10-17T12:30:52;4.47;;;2.28;;
40244;SDS011;25963;42.694;23.600;2022-10-17T12:33:22;3.58;;;2.50;;
40244;SDS011;25963;42.694;23.600;2022-10-17T12:38:41;6.55;;;3.45;;
40244;SDS011;25963;42.694;23.600;2022-10-17T12:41:07;7.40;;;4.28;;
40244;SDS011;25963;42.694;23.600;2022-10-17T12:43:42;7.13;;;4.40;;
40244;SDS011;25963;42.694;23.600;2022-10-17T12:54:56;5.63;;;2.63;;
40244;SDS011;25963;42.694;23.600;2022-10-17T13:00:16;3.75;;;2.65;;
40244;SDS011;25963;42.694;23.600;2022-10-17T13:03:02;3.47;;;2.80;;
40244;SDS011;25963;42.694;23.600;2022-10-17T13:05:32;3.97;;;2.88;;
40244;SDS011;25963;42.694;23.600;2022-10-17T13:08:02;6.60;;;2.70;;
40244;SDS011;25963;42.694;23.600;2022-10-17T13:10:32;3.95;;;3.33;;
40244;SDS011;25963;42.694;23.600;2022-10-17T13:13:05;5.63;;;2.65;;
40244;SDS011;25963;42.694;23.600;2022-10-17T13:15:49;3.30;;;2.58;;
40244;SDS011;25963;42.694;23.600;2022-10-17T13:18:23;4.75;;;2.42;;
40244;SDS011;25963;42.694;23.600;2022-10-17T13:21:33;4.47;;;2.80;;
40244;SDS011;25963;42.694;23.600;2022-10-17T13:23:40;2.78;;;2.20;;
40244;SDS011;25963;42.694;23.600;2022-10-17T13:28:42;4.35;;;2.42;;
40244;SDS011;25963;42.694;23.600;2022-10-17T13:31:25;7.55;;;2.72;;
40244;SDS011;25963;42.694;23.600;2022-10-17T13:33:56;4.93;;;2.83;;
40244;SDS011;25963;42.694;23.600;2022-10-17T13:36:23;5.35;;;2.58;;
40244;SDS011;25963;42.694;23.600;2022-10-17T13:38:50;6.93;;;3.05;;
40244;SDS011;25963;42.694;23.600;2022-10-17T13:41:16;3.17;;;2.47;;
40244;SDS011;25963;42.694;23.600;2022-10-17T13:43:47;7.05;;;2.90;;
40244;SDS011;25963;42.694;23.600;2022-10-17T13:46:22;13.63;;;12.23;;
40244;SDS011;25963;42.694;23.600;2022-10-17T13:48:50;4.80;;;3.85;;
40244;SDS011;25963;42.694;23.600;2022-10-17T13:51:16;3.72;;;2.75;;
40244;SDS011;25963;42.694;23.600;2022-10-17T13:53:41;2.35;;;2.15;;
40244;SDS011;25963;42.694;23.600;2022-10-17T14:01:14;9.80;;;2.92;;
40244;SDS011;25963;42.694;23.600;2022-10-17T14:03:41;4.53;;;3.47;;
40244;SDS011;25963;42.694;23.600;2022-10-17T14:06:12;9.18;;;2.88;;
40244;SDS011;25963;42.694;23.600;2022-10-17T14:11:17;4.20;;;3.25;;
40244;SDS011;25963;42.694;23.600;2022-10-17T14:13:49;3.55;;;2.70;;
40244;SDS011;25963;42.694;23.600;2022-10-17T14:16:17;4.85;;;2.65;;
40244;SDS011;25963;42.694;23.600;2022-10-17T14:18:45;5.97;;;3.35;;
40244;SDS011;25963;42.694;23.600;2022-10-17T14:21:23;5.75;;;2.63;;
40244;SDS011;25963;42.694;23.600;2022-10-17T14:24:10;7.07;;;3.20;;
40244;SDS011;25963;42.694;23.600;2022-10-17T14:26:48;6.65;;;3.00;;
40244;SDS011;25963;42.694;23.600;2022-10-17T14:29:21;6.35;;;2.90;;
40244;SDS011;25963;42.694;23.600;2022-10-17T14:31:49;5.65;;;3.33;;
40244;SDS011;25963;42.694;23.600;2022-10-17T14:34:23;5.65;;;3.20;;
40244;SDS011;25963;42.694;23.600;2022-10-17T14:36:54;5.65;;;3.08;;
40244;SDS011;25963;42.694;23.600;2022-10-17T14:39:21;4.63;;;3.08;;
40244;SDS011;25963;42.694;23.600;2022-10-17T14:41:49;6.78;;;3.88;;
40244;SDS011;25963;42.694;23.600;2022-10-17T14:46:48;6.10;;;4.13;;
40244;SDS011;25963;42.694;23.600;2022-10-17T14:49:24;6.93;;;3.57;;
40244;SDS011;25963;42.694;23.600;2022-10-17T14:52:36;3.78;;;3.10;;
40244;SDS011;25963;42.694;23.600;2022-10-17T14:54:56;3.47;;;2.83;;
40244;SDS011;25963;42.694;23.600;2022-10-17T14:59:57;6.38;;;4.65;;
40244;SDS011;25963;42.694;23.600;2022-10-17T15:02:28;5.80;;;3.35;;
40244;SDS011;25963;42.694;23.600;2022-10-17T15:04:54;8.88;;;6.75;;
40244;SDS011;25963;42.694;23.600;2022-10-17T15:07:20;6.63;;;4.43;;
40244;SDS011;25963;42.694;23.600;2022-10-17T15:09:47;8.57;;;6.60;;
40244;SDS011;25963;42.694;23.600;2022-10-17T15:12:19;24.38;;;13.10;;
40244;SDS011;25963;42.694;23.600;2022-10-17T15:14:47;9.75;;;5.32;;
40244;SDS011;25963;42.694;23.600;2022-10-17T15:17:16;8.95;;;4.53;;
40244;SDS011;25963;42.694;23.600;2022-10-17T15:19:45;9.30;;;4.22;;
40244;SDS011;25963;42.694;23.600;2022-10-17T15:22:11;8.80;;;4.22;;
40244;SDS011;25963;42.694;23.600;2022-10-17T15:24:37;7.18;;;3.55;;
40244;SDS011;25963;42.694;23.600;2022-10-17T15:27:05;8.18;;;4.35;;
40244;SDS011;25963;42.694;23.600;2022-10-17T15:29:37;8.18;;;5.45;;
40244;SDS011;25963;42.694;23.600;2022-10-17T15:32:03;10.63;;;6.93;;
40244;SDS011;25963;42.694;23.600;2022-10-17T15:34:28;16.52;;;8.77;;
40244;SDS011;25963;42.694;23.600;2022-10-17T15:36:54;13.85;;;7.82;;
40244;SDS011;25963;42.694;23.600;2022-10-17T15:39:19;17.38;;;8.50;;
40244;SDS011;25963;42.694;23.600;2022-10-17T15:41:45;25.88;;;15.50;;
40244;SDS011;25963;42.694;23.600;2022-10-17T15:44:12;71.90;;;39.88;;
40244;SDS011;25963;42.694;23.600;2022-10-17T15:46:38;60.00;;;31.90;;
40244;SDS011;25963;42.694;23.600;2022-10-17T15:49:05;49.67;;;31.05;;
40244;SDS011;25963;42.694;23.600;2022-10-17T15:51:34;41.22;;;25.85;;
40244;SDS011;25963;42.694;23.600;2022-10-17T15:53:59;36.13;;;19.70;;
40244;SDS011;25963;42.694;23.600;2022-10-17T15:56:27;262.92;;;89.47;;
40244;SDS011;25963;42.694;23.600;2022-10-17T15:58:55;64.50;;;29.83;;
40244;SDS011;25963;42.694;23.600;2022-10-17T16:01:22;39.55;;;27.33;;
40244;SDS011;25963;42.694;23.600;2022-10-17T16:03:52;21.85;;;14.77;;
40244;SDS011;25963;42.694;23.600;2022-10-17T16:06:18;44.47;;;27.90;;
40244;SDS011;25963;42.694;23.600;2022-10-17T16:08:45;22.25;;;14.45;;
40244;SDS011;25963;42.694;23.600;2022-10-17T16:11:19;16.95;;;9.82;;
40244;SDS011;25963;42.694;23.600;2022-10-17T16:14:08;44.13;;;23.35;;
40244;SDS011;25963;42.694;23.600;2022-10-17T16:16:37;19.08;;;10.98;;
40244;SDS011;25963;42.694;23.600;2022-10-17T16:19:03;14.18;;;10.15;;
40244;SDS011;25963;42.694;23.600;2022-10-17T16:21:32;9.43;;;5.32;;
40244;SDS011;25963;42.694;23.600;2022-10-17T16:24:01;29.02;;;6.30;;
40244;SDS011;25963;42.694;23.600;2022-10-17T16:26:27;29.10;;;12.52;;
40244;SDS011;25963;42.694;23.600;2022-10-17T16:28:53;7.88;;;6.03;;
40244;SDS011;25963;42.694;23.600;2022-10-17T16:33:47;9.65;;;6.38;;
40244;SDS011;25963;42.694;23.600;2022-10-17T16:36:13;11.35;;;6.03;;
40244;SDS011;25963;42.694;23.600;2022-10-17T16:38:39;14.18;;;9.30;;
40244;SDS011;25963;42.694;23.600;2022-10-17T16:41:07;12.60;;;6.72;;
40244;SDS011;25963;42.694;23.600;2022-10-17T16:43:43;13.63;;;7.57;;
40244;SDS011;25963;42.694;23.600;2022-10-17T16:46:08;13.45;;;7.38;;